sensor_id;sensor_type;location;lat;lon;timestamp;P1;durP1;ratioP1;P2;durP2;ratioP2
21894;SDS011;11112;51.270;7.224;2023-05-10T00:01:09;1.98;;;1.60;;
21894;SDS011;11112;51.270;7.224;2023-05-10T00:03:40;2.20;;;1.80;;
21894;SDS011;11112;51.270;7.224;2023-05-10T00:06:09;2.53;;;2.03;;
21894;SDS011;11112;51.270;7.224;2023-05-10T00:08:41;2.40;;;2.13;;
21894;SDS011;11112;51.270;7.224;2023-05-10T00:11:11;3.10;;;2.40;;
21894;SDS011;11112;51.270;7.224;2023-05-10T00:13:38;2.80;;;2.50;;
21894;SDS011;11112;51.270;7.224;2023-05-10T00:16:06;3.47;;;3.10;;
21894;SDS011;11112;51.270;7.224;2023-05-10T00:18:34;4.00;;;3.08;;
21894;SDS011;11112;51.270;7.224;2023-05-10T00:21:04;3.58;;;3.10;;
21894;SDS011;11112;51.270;7.224;2023-05-10T00:23:32;5.07;;;3.30;;
21894;SDS011;11112;51.270;7.224;2023-05-10T00:25:59;5.97;;;3.58;;
21894;SDS011;11112;51.270;7.224;2023-05-10T00:28:27;3.85;;;3.17;;
21894;SDS011;11112;51.270;7.224;2023-05-10T00:30:54;4.30;;;3.45;;
21894;SDS011;11112;51.270;7.224;2023-05-10T00:33:22;4.53;;;3.58;;
21894;SDS011;11112;51.270;7.224;2023-05-10T00:35:49;4.28;;;3.88;;
21894;SDS011;11112;51.270;7.224;2023-05-10T00:38:18;4.35;;;3.80;;
21894;SDS011;11112;51.270;7.224;2023-05-10T00:40:46;4.07;;;3.67;;
21894;SDS011;11112;51.270;7.224;2023-05-10T00:43:13;4.50;;;3.95;;
21894;SDS011;11112;51.270;7.224;2023-05-10T00:45:41;5.07;;;4.22;;
21894;SDS011;11112;51.270;7.224;2023-05-10T00:48:09;4.72;;;4.00;;
21894;SDS011;11112;51.270;7.224;2023-05-10T00:50:37;5.30;;;3.88;;
21894;SDS011;11112;51.270;7.224;2023-05-10T00:53:05;4.70;;;4.05;;
21894;SDS011;11112;51.270;7.224;2023-05-10T00:55:37;4.85;;;3.75;;
21894;SDS011;11112;51.270;7.224;2023-05-10T00:58:04;4.95;;;4.07;;
21894;SDS011;11112;51.270;7.224;2023-05-10T01:00:33;4.15;;;3.75;;
21894;SDS011;11112;51.270;7.224;2023-05-10T01:03:02;4.32;;;3.88;;
21894;SDS011;11112;51.270;7.224;2023-05-10T01:05:29;4.28;;;3.88;;
21894;SDS011;11112;51.270;7.224;2023-05-10T01:07:57;4.20;;;3.80;;
21894;SDS011;11112;51.270;7.224;2023-05-10T01:10:26;4.45;;;3.97;;
21894;SDS011;11112;51.270;7.224;2023-05-10T01:12:54;4.85;;;3.85;;
21894;SDS011;11112;51.270;7.224;2023-05-10T01:15:22;4.97;;;3.78;;
21894;SDS011;11112;51.270;7.224;2023-05-10T01:17:50;4.93;;;4.43;;
21894;SDS011;11112;51.270;7.224;2023-05-10T01:20:19;5.53;;;4.05;;
21894;SDS011;11112;51.270;7.224;2023-05-10T01:23:03;5.22;;;4.10;;
21894;SDS011;11112;51.270;7.224;2023-05-10T01:34:54;5.20;;;4.70;;
21894;SDS011;11112;51.270;7.224;2023-05-10T01:37:30;6.45;;;4.88;;
21894;SDS011;11112;51.270;7.224;2023-05-10T01:40:09;5.10;;;4.60;;
21894;SDS011;11112;51.270;7.224;2023-05-10T01:42:49;6.30;;;4.68;;
21894;SDS011;11112;51.270;7.224;2023-05-10T01:45:23;6.20;;;5.43;;
21894;SDS011;11112;51.270;7.224;2023-05-10T01:48:03;6.20;;;5.30;;
21894;SDS011;11112;51.270;7.224;2023-05-10T01:50:34;6.00;;;5.38;;
21894;SDS011;11112;51.270;7.224;2023-05-10T01:53:06;6.15;;;5.43;;
21894;SDS011;11112;51.270;7.224;2023-05-10T01:55:39;7.45;;;5.22;;
21894;SDS011;11112;51.270;7.224;2023-05-10T01:58:13;6.78;;;5.80;;
21894;SDS011;11112;51.270;7.224;2023-05-10T02:00:47;9.20;;;6.00;;
21894;SDS011;11112;51.270;7.224;2023-05-10T02:03:21;7.22;;;6.38;;
21894;SDS011;11112;51.270;7.224;2023-05-10T02:05:50;7.22;;;6.20;;
21894;SDS011;11112;51.270;7.224;2023-05-10T02:08:20;7.15;;;6.32;;
21894;SDS011;11112;51.270;7.224;2023-05-10T02:10:49;8.57;;;6.63;;
21894;SDS011;11112;51.270;7.224;2023-05-10T02:13:18;8.88;;;5.80;;
21894;SDS011;11112;51.270;7.224;2023-05-10T02:15:46;8.18;;;5.20;;
21894;SDS011;11112;51.270;7.224;2023-05-10T02:18:15;6.05;;;4.43;;
21894;SDS011;11112;51.270;7.224;2023-05-10T02:20:47;6.63;;;4.78;;
21894;SDS011;11112;51.270;7.224;2023-05-10T02:23:14;7.25;;;4.60;;
21894;SDS011;11112;51.270;7.224;2023-05-10T02:25:44;4.38;;;3.80;;
21894;SDS011;11112;51.270;7.224;2023-05-10T02:28:13;4.70;;;3.83;;
21894;SDS011;11112;51.270;7.224;2023-05-10T02:30:41;5.10;;;3.75;;
21894;SDS011;11112;51.270;7.224;2023-05-10T02:33:10;4.70;;;3.65;;
21894;SDS011;11112;51.270;7.224;2023-05-10T02:35:38;3.97;;;3.30;;
21894;SDS011;11112;51.270;7.224;2023-05-10T02:38:08;4.80;;;3.22;;
21894;SDS011;11112;51.270;7.224;2023-05-10T02:40:37;4.18;;;3.60;;
21894;SDS011;11112;51.270;7.224;2023-05-10T02:43:08;7.10;;;3.90;;
21894;SDS011;11112;51.270;7.224;2023-05-10T02:45:40;5.30;;;4.10;;
21894;SDS011;11112;51.270;7.224;2023-05-10T02:48:10;5.03;;;4.00;;
21894;SDS011;11112;51.270;7.224;2023-05-10T02:50:37;4.78;;;4.15;;
21894;SDS011;11112;51.270;7.224;2023-05-10T02:53:11;4.78;;;3.88;;
21894;SDS011;11112;51.270;7.224;2023-05-10T02:55:49;5.00;;;4.40;;
21894;SDS011;11112;51.270;7.224;2023-05-10T02:58:18;5.72;;;4.40;;
21894;SDS011;11112;51.270;7.224;2023-05-10T03:00:45;5.50;;;4.38;;
21894;SDS011;11112;51.270;7.224;2023-05-10T03:03:13;4.95;;;4.43;;
21894;SDS011;11112;51.270;7.224;2023-05-10T03:05:41;5.05;;;4.25;;
21894;SDS011;11112;51.270;7.224;2023-05-10T03:08:09;6.53;;;4.53;;
21894;SDS011;11112;51.270;7.224;2023-05-10T03:10:40;5.70;;;5.05;;
21894;SDS011;11112;51.270;7.224;2023-05-10T03:13:20;5.65;;;4.80;;
21894;SDS011;11112;51.270;7.224;2023-05-10T03:16:06;6.88;;;5.13;;
21894;SDS011;11112;51.270;7.224;2023-05-10T03:18:41;7.07;;;5.40;;
21894;SDS011;11112;51.270;7.224;2023-05-10T03:21:14;6.88;;;5.80;;
21894;SDS011;11112;51.270;7.224;2023-05-10T03:23:47;7.63;;;6.10;;
21894;SDS011;11112;51.270;7.224;2023-05-10T03:26:25;7.05;;;5.80;;
21894;SDS011;11112;51.270;7.224;2023-05-10T03:28:54;6.75;;;6.05;;
21894;SDS011;11112;51.270;7.224;2023-05-10T03:31:23;7.07;;;6.38;;
21894;SDS011;11112;51.270;7.224;2023-05-10T03:33:51;7.13;;;6.05;;
21894;SDS011;11112;51.270;7.224;2023-05-10T03:36:20;9.75;;;6.53;;
21894;SDS011;11112;51.270;7.224;2023-05-10T03:38:50;7.55;;;5.57;;
21894;SDS011;11112;51.270;7.224;2023-05-10T03:41:19;6.55;;;5.50;;
21894;SDS011;11112;51.270;7.224;2023-05-10T03:43:46;6.10;;;5.03;;
21894;SDS011;11112;51.270;7.224;2023-05-10T03:46:14;6.25;;;4.93;;
21894;SDS011;11112;51.270;7.224;2023-05-10T03:48:41;6.63;;;5.28;;
21894;SDS011;11112;51.270;7.224;2023-05-10T03:51:09;7.72;;;5.18;;
21894;SDS011;11112;51.270;7.224;2023-05-10T03:53:37;8.43;;;5.38;;
21894;SDS011;11112;51.270;7.224;2023-05-10T03:56:06;6.53;;;5.45;;
21894;SDS011;11112;51.270;7.224;2023-05-10T03:58:33;8.25;;;6.43;;
21894;SDS011;11112;51.270;7.224;2023-05-10T04:01:00;8.07;;;6.30;;
21894;SDS011;11112;51.270;7.224;2023-05-10T04:03:28;7.25;;;6.10;;
21894;SDS011;11112;51.270;7.224;2023-05-10T04:05:58;9.52;;;7.35;;
21894;SDS011;11112;51.270;7.224;2023-05-10T04:08:26;8.98;;;7.18;;
21894;SDS011;11112;51.270;7.224;2023-05-10T04:10:54;9.85;;;7.38;;
21894;SDS011;11112;51.270;7.224;2023-05-10T04:13:22;10.13;;;7.95;;
21894;SDS011;11112;51.270;7.224;2023-05-10T04:15:49;9.82;;;8.10;;
21894;SDS011;11112;51.270;7.224;2023-05-10T04:18:16;9.88;;;7.72;;
21894;SDS011;11112;51.270;7.224;2023-05-10T04:20:43;11.75;;;7.90;;
21894;SDS011;11112;51.270;7.224;2023-05-10T04:23:10;12.88;;;8.65;;
21894;SDS011;11112;51.270;7.224;2023-05-10T04:25:41;10.20;;;8.55;;
21894;SDS011;11112;51.270;7.224;2023-05-10T04:28:08;11.10;;;9.63;;
21894;SDS011;11112;51.270;7.224;2023-05-10T04:30:37;13.95;;;10.70;;
21894;SDS011;11112;51.270;7.224;2023-05-10T04:33:05;14.40;;;10.63;;
21894;SDS011;11112;51.270;7.224;2023-05-10T04:35:32;15.65;;;12.52;;
21894;SDS011;11112;51.270;7.224;2023-05-10T04:38:00;14.55;;;11.30;;
21894;SDS011;11112;51.270;7.224;2023-05-10T04:40:27;16.00;;;10.60;;
21894;SDS011;11112;51.270;7.224;2023-05-10T04:42:54;14.07;;;9.98;;
21894;SDS011;11112;51.270;7.224;2023-05-10T04:45:22;16.35;;;10.63;;
21894;SDS011;11112;51.270;7.224;2023-05-10T04:47:50;14.98;;;10.65;;
21894;SDS011;11112;51.270;7.224;2023-05-10T04:50:17;16.35;;;11.75;;
21894;SDS011;11112;51.270;7.224;2023-05-10T04:52:44;15.15;;;11.80;;
21894;SDS011;11112;51.270;7.224;2023-05-10T04:55:11;15.63;;;12.18;;
21894;SDS011;11112;51.270;7.224;2023-05-10T04:57:39;17.88;;;13.20;;
21894;SDS011;11112;51.270;7.224;2023-05-10T05:00:06;19.10;;;14.02;;
21894;SDS011;11112;51.270;7.224;2023-05-10T05:02:35;21.50;;;14.38;;
21894;SDS011;11112;51.270;7.224;2023-05-10T05:05:04;19.33;;;15.20;;
21894;SDS011;11112;51.270;7.224;2023-05-10T05:07:32;21.85;;;14.93;;
21894;SDS011;11112;51.270;7.224;2023-05-10T05:09:59;20.23;;;14.88;;
21894;SDS011;11112;51.270;7.224;2023-05-10T05:12:26;20.60;;;15.65;;
21894;SDS011;11112;51.270;7.224;2023-05-10T05:14:53;20.10;;;15.82;;
21894;SDS011;11112;51.270;7.224;2023-05-10T05:17:21;22.52;;;16.50;;
21894;SDS011;11112;51.270;7.224;2023-05-10T05:19:48;24.50;;;16.85;;
21894;SDS011;11112;51.270;7.224;2023-05-10T05:22:16;23.95;;;17.77;;
21894;SDS011;11112;51.270;7.224;2023-05-10T05:24:44;23.67;;;17.38;;
21894;SDS011;11112;51.270;7.224;2023-05-10T05:27:11;24.38;;;19.42;;
21894;SDS011;11112;51.270;7.224;2023-05-10T05:29:38;24.88;;;18.55;;
21894;SDS011;11112;51.270;7.224;2023-05-10T05:32:06;25.98;;;19.25;;
21894;SDS011;11112;51.270;7.224;2023-05-10T05:34:33;24.20;;;18.92;;
21894;SDS011;11112;51.270;7.224;2023-05-10T05:37:00;24.65;;;18.92;;
21894;SDS011;11112;51.270;7.224;2023-05-10T05:39:29;28.40;;;19.73;;
21894;SDS011;11112;51.270;7.224;2023-05-10T05:41:56;27.95;;;19.92;;
21894;SDS011;11112;51.270;7.224;2023-05-10T05:44:24;26.15;;;19.60;;
21894;SDS011;11112;51.270;7.224;2023-05-10T05:46:53;29.17;;;19.10;;
21894;SDS011;11112;51.270;7.224;2023-05-10T05:49:20;24.88;;;18.77;;
21894;SDS011;11112;51.270;7.224;2023-05-10T05:51:48;26.83;;;19.00;;
21894;SDS011;11112;51.270;7.224;2023-05-10T05:54:15;26.05;;;18.77;;
21894;SDS011;11112;51.270;7.224;2023-05-10T05:56:43;25.65;;;19.33;;
21894;SDS011;11112;51.270;7.224;2023-05-10T05:59:11;27.70;;;18.88;;
21894;SDS011;11112;51.270;7.224;2023-05-10T06:01:38;24.35;;;17.98;;
21894;SDS011;11112;51.270;7.224;2023-05-10T06:04:05;23.55;;;18.13;;
21894;SDS011;11112;51.270;7.224;2023-05-10T06:06:32;27.85;;;19.95;;
21894;SDS011;11112;51.270;7.224;2023-05-10T06:09:00;27.10;;;18.30;;
21894;SDS011;11112;51.270;7.224;2023-05-10T06:11:27;28.67;;;19.80;;
21894;SDS011;11112;51.270;7.224;2023-05-10T06:13:55;25.50;;;18.10;;
21894;SDS011;11112;51.270;7.224;2023-05-10T06:16:22;27.83;;;19.50;;
21894;SDS011;11112;51.270;7.224;2023-05-10T06:18:50;27.45;;;18.15;;
21894;SDS011;11112;51.270;7.224;2023-05-10T06:21:17;30.30;;;18.73;;
21894;SDS011;11112;51.270;7.224;2023-05-10T06:23:44;27.10;;;18.35;;
21894;SDS011;11112;51.270;7.224;2023-05-10T06:26:11;26.30;;;18.83;;
21894;SDS011;11112;51.270;7.224;2023-05-10T06:28:39;28.52;;;19.95;;
21894;SDS011;11112;51.270;7.224;2023-05-10T06:31:08;29.08;;;20.05;;
21894;SDS011;11112;51.270;7.224;2023-05-10T06:33:36;28.23;;;19.55;;
21894;SDS011;11112;51.270;7.224;2023-05-10T06:36:04;28.67;;;19.27;;
21894;SDS011;11112;51.270;7.224;2023-05-10T06:38:31;27.50;;;19.10;;
21894;SDS011;11112;51.270;7.224;2023-05-10T06:40:59;25.40;;;18.13;;
21894;SDS011;11112;51.270;7.224;2023-05-10T06:43:26;26.58;;;17.65;;
21894;SDS011;11112;51.270;7.224;2023-05-10T06:45:53;23.63;;;16.75;;
21894;SDS011;11112;51.270;7.224;2023-05-10T06:48:22;24.35;;;15.90;;
21894;SDS011;11112;51.270;7.224;2023-05-10T06:50:49;23.15;;;15.85;;
21894;SDS011;11112;51.270;7.224;2023-05-10T06:53:16;24.60;;;15.93;;
21894;SDS011;11112;51.270;7.224;2023-05-10T06:55:43;22.65;;;15.27;;
21894;SDS011;11112;51.270;7.224;2023-05-10T06:58:11;20.63;;;14.40;;
21894;SDS011;11112;51.270;7.224;2023-05-10T07:00:38;17.55;;;12.57;;
21894;SDS011;11112;51.270;7.224;2023-05-10T07:03:08;17.45;;;11.93;;
21894;SDS011;11112;51.270;7.224;2023-05-10T07:05:37;17.13;;;11.90;;
21894;SDS011;11112;51.270;7.224;2023-05-10T07:08:04;16.05;;;11.45;;
21894;SDS011;11112;51.270;7.224;2023-05-10T07:10:32;18.95;;;11.73;;
21894;SDS011;11112;51.270;7.224;2023-05-10T07:12:59;16.30;;;11.52;;
21894;SDS011;11112;51.270;7.224;2023-05-10T07:15:26;17.25;;;11.27;;
21894;SDS011;11112;51.270;7.224;2023-05-10T07:17:54;15.93;;;11.75;;
21894;SDS011;11112;51.270;7.224;2023-05-10T07:20:21;17.65;;;11.77;;
21894;SDS011;11112;51.270;7.224;2023-05-10T07:22:49;15.20;;;11.90;;
21894;SDS011;11112;51.270;7.224;2023-05-10T07:25:16;17.50;;;11.27;;
21894;SDS011;11112;51.270;7.224;2023-05-10T07:27:44;17.70;;;12.00;;
21894;SDS011;11112;51.270;7.224;2023-05-10T07:30:13;14.63;;;11.40;;
21894;SDS011;11112;51.270;7.224;2023-05-10T07:32:41;17.33;;;11.68;;
21894;SDS011;11112;51.270;7.224;2023-05-10T07:35:08;16.80;;;11.65;;
21894;SDS011;11112;51.270;7.224;2023-05-10T07:37:35;18.70;;;12.63;;
21894;SDS011;11112;51.270;7.224;2023-05-10T07:40:04;18.38;;;12.70;;
21894;SDS011;11112;51.270;7.224;2023-05-10T07:42:33;19.25;;;13.45;;
21894;SDS011;11112;51.270;7.224;2023-05-10T07:45:00;21.02;;;14.18;;
21894;SDS011;11112;51.270;7.224;2023-05-10T07:47:27;19.00;;;13.98;;
21894;SDS011;11112;51.270;7.224;2023-05-10T07:49:54;22.13;;;13.82;;
21894;SDS011;11112;51.270;7.224;2023-05-10T07:52:21;18.48;;;12.82;;
21894;SDS011;11112;51.270;7.224;2023-05-10T07:54:48;17.02;;;12.93;;
21894;SDS011;11112;51.270;7.224;2023-05-10T07:57:17;18.23;;;13.38;;
21894;SDS011;11112;51.270;7.224;2023-05-10T07:59:44;21.02;;;13.02;;
21894;SDS011;11112;51.270;7.224;2023-05-10T08:02:11;17.27;;;12.25;;
21894;SDS011;11112;51.270;7.224;2023-05-10T08:04:38;14.57;;;10.98;;
21894;SDS011;11112;51.270;7.224;2023-05-10T08:07:05;17.00;;;11.13;;
21894;SDS011;11112;51.270;7.224;2023-05-10T08:09:33;14.95;;;10.98;;
21894;SDS011;11112;51.270;7.224;2023-05-10T08:12:00;15.98;;;10.40;;
21894;SDS011;11112;51.270;7.224;2023-05-10T08:14:29;17.20;;;10.00;;
21894;SDS011;11112;51.270;7.224;2023-05-10T08:16:56;13.82;;;9.27;;
21894;SDS011;11112;51.270;7.224;2023-05-10T08:19:23;12.90;;;8.75;;
21894;SDS011;11112;51.270;7.224;2023-05-10T08:21:50;12.50;;;8.57;;
21894;SDS011;11112;51.270;7.224;2023-05-10T08:24:20;11.25;;;7.80;;
21894;SDS011;11112;51.270;7.224;2023-05-10T08:26:47;11.10;;;8.07;;
21894;SDS011;11112;51.270;7.224;2023-05-10T08:29:14;14.23;;;8.18;;
21894;SDS011;11112;51.270;7.224;2023-05-10T08:31:43;12.15;;;8.82;;
21894;SDS011;11112;51.270;7.224;2023-05-10T08:34:10;12.48;;;8.27;;
21894;SDS011;11112;51.270;7.224;2023-05-10T08:36:37;14.77;;;9.10;;
21894;SDS011;11112;51.270;7.224;2023-05-10T08:39:04;12.35;;;8.63;;
21894;SDS011;11112;51.270;7.224;2023-05-10T08:41:32;13.07;;;9.20;;
21894;SDS011;11112;51.270;7.224;2023-05-10T08:44:02;18.30;;;10.25;;
21894;SDS011;11112;51.270;7.224;2023-05-10T08:46:30;13.40;;;9.30;;
21894;SDS011;11112;51.270;7.224;2023-05-10T08:49:05;15.85;;;10.15;;
21894;SDS011;11112;51.270;7.224;2023-05-10T08:51:35;17.48;;;10.70;;
21894;SDS011;11112;51.270;7.224;2023-05-10T08:54:06;16.98;;;10.82;;
21894;SDS011;11112;51.270;7.224;2023-05-10T08:56:33;18.35;;;10.98;;
21894;SDS011;11112;51.270;7.224;2023-05-10T08:59:01;20.05;;;12.27;;
21894;SDS011;11112;51.270;7.224;2023-05-10T09:01:28;18.13;;;11.88;;
21894;SDS011;11112;51.270;7.224;2023-05-10T09:03:58;17.92;;;11.35;;
21894;SDS011;11112;51.270;7.224;2023-05-10T09:06:27;17.85;;;11.40;;
21894;SDS011;11112;51.270;7.224;2023-05-10T09:08:54;18.40;;;11.23;;
21894;SDS011;11112;51.270;7.224;2023-05-10T09:11:22;16.83;;;10.73;;
21894;SDS011;11112;51.270;7.224;2023-05-10T09:13:50;14.70;;;9.70;;
21894;SDS011;11112;51.270;7.224;2023-05-10T09:16:18;16.05;;;9.80;;
21894;SDS011;11112;51.270;7.224;2023-05-10T09:18:45;16.48;;;9.65;;
21894;SDS011;11112;51.270;7.224;2023-05-10T09:21:12;14.50;;;8.95;;
21894;SDS011;11112;51.270;7.224;2023-05-10T09:23:44;16.48;;;9.63;;
21894;SDS011;11112;51.270;7.224;2023-05-10T09:26:11;12.75;;;8.75;;
21894;SDS011;11112;51.270;7.224;2023-05-10T09:28:49;15.85;;;10.63;;
21894;SDS011;11112;51.270;7.224;2023-05-10T09:31:18;18.55;;;11.77;;
21894;SDS011;11112;51.270;7.224;2023-05-10T09:33:45;17.80;;;12.95;;
21894;SDS011;11112;51.270;7.224;2023-05-10T09:36:13;19.88;;;13.55;;
21894;SDS011;11112;51.270;7.224;2023-05-10T09:38:46;22.40;;;14.50;;
21894;SDS011;11112;51.270;7.224;2023-05-10T09:41:17;23.02;;;14.55;;
21894;SDS011;11112;51.270;7.224;2023-05-10T09:43:46;21.40;;;14.38;;
21894;SDS011;11112;51.270;7.224;2023-05-10T09:46:13;23.42;;;14.30;;
21894;SDS011;11112;51.270;7.224;2023-05-10T09:48:42;23.33;;;14.70;;
21894;SDS011;11112;51.270;7.224;2023-05-10T09:51:18;23.05;;;13.65;;
21894;SDS011;11112;51.270;7.224;2023-05-10T09:53:47;20.70;;;14.27;;
21894;SDS011;11112;51.270;7.224;2023-05-10T09:59:04;21.38;;;14.48;;
21894;SDS011;11112;51.270;7.224;2023-05-10T10:01:32;19.58;;;13.65;;
21894;SDS011;11112;51.270;7.224;2023-05-10T10:04:02;20.67;;;13.25;;
21894;SDS011;11112;51.270;7.224;2023-05-10T10:06:34;18.02;;;12.70;;
21894;SDS011;11112;51.270;7.224;2023-05-10T10:09:04;23.83;;;14.43;;
21894;SDS011;11112;51.270;7.224;2023-05-10T10:11:33;22.27;;;13.65;;
21894;SDS011;11112;51.270;7.224;2023-05-10T10:14:01;22.63;;;14.32;;
21894;SDS011;11112;51.270;7.224;2023-05-10T10:16:29;23.10;;;15.05;;
21894;SDS011;11112;51.270;7.224;2023-05-10T10:18:57;29.38;;;17.80;;
21894;SDS011;11112;51.270;7.224;2023-05-10T10:21:24;25.92;;;17.23;;
21894;SDS011;11112;51.270;7.224;2023-05-10T10:23:52;29.08;;;17.67;;
21894;SDS011;11112;51.270;7.224;2023-05-10T10:26:20;26.95;;;16.50;;
21894;SDS011;11112;51.270;7.224;2023-05-10T10:28:49;27.58;;;17.85;;
21894;SDS011;11112;51.270;7.224;2023-05-10T10:31:26;28.45;;;18.50;;
21894;SDS011;11112;51.270;7.224;2023-05-10T10:34:01;27.90;;;18.08;;
21894;SDS011;11112;51.270;7.224;2023-05-10T10:36:32;27.77;;;17.65;;
21894;SDS011;11112;51.270;7.224;2023-05-10T10:39:08;26.45;;;17.38;;
21894;SDS011;11112;51.270;7.224;2023-05-10T10:41:38;26.95;;;17.52;;
21894;SDS011;11112;51.270;7.224;2023-05-10T10:44:24;25.75;;;16.90;;
21894;SDS011;11112;51.270;7.224;2023-05-10T10:49:50;26.90;;;16.88;;
21894;SDS011;11112;51.270;7.224;2023-05-10T10:52:25;25.17;;;15.77;;
21894;SDS011;11112;51.270;7.224;2023-05-10T10:54:58;21.92;;;14.75;;
21894;SDS011;11112;51.270;7.224;2023-05-10T10:57:30;20.63;;;14.05;;
21894;SDS011;11112;51.270;7.224;2023-05-10T11:00:18;22.10;;;15.38;;
21894;SDS011;11112;51.270;7.224;2023-05-10T11:02:53;21.42;;;14.80;;
21894;SDS011;11112;51.270;7.224;2023-05-10T11:05:25;20.00;;;13.90;;
21894;SDS011;11112;51.270;7.224;2023-05-10T11:08:07;18.35;;;13.30;;
21894;SDS011;11112;51.270;7.224;2023-05-10T11:10:37;19.27;;;12.77;;
21894;SDS011;11112;51.270;7.224;2023-05-10T11:13:08;18.88;;;12.57;;
21894;SDS011;11112;51.270;7.224;2023-05-10T11:15:37;20.67;;;13.70;;
21894;SDS011;11112;51.270;7.224;2023-05-10T11:18:18;21.77;;;13.10;;
21894;SDS011;11112;51.270;7.224;2023-05-10T11:20:49;18.42;;;12.40;;
21894;SDS011;11112;51.270;7.224;2023-05-10T11:23:17;18.27;;;12.45;;
21894;SDS011;11112;51.270;7.224;2023-05-10T11:25:46;18.67;;;12.40;;
21894;SDS011;11112;51.270;7.224;2023-05-10T11:28:17;18.17;;;12.00;;
21894;SDS011;11112;51.270;7.224;2023-05-10T11:30:45;18.88;;;11.98;;
21894;SDS011;11112;51.270;7.224;2023-05-10T11:33:15;19.58;;;12.68;;
21894;SDS011;11112;51.270;7.224;2023-05-10T11:35:45;18.52;;;12.98;;
21894;SDS011;11112;51.270;7.224;2023-05-10T11:38:13;19.63;;;13.20;;
21894;SDS011;11112;51.270;7.224;2023-05-10T11:40:40;19.23;;;11.98;;
21894;SDS011;11112;51.270;7.224;2023-05-10T11:43:08;17.83;;;12.05;;
21894;SDS011;11112;51.270;7.224;2023-05-10T11:45:39;17.52;;;12.00;;
21894;SDS011;11112;51.270;7.224;2023-05-10T11:48:07;15.77;;;10.48;;
21894;SDS011;11112;51.270;7.224;2023-05-10T11:50:34;17.35;;;11.05;;
21894;SDS011;11112;51.270;7.224;2023-05-10T11:53:01;15.35;;;10.48;;
21894;SDS011;11112;51.270;7.224;2023-05-10T11:55:28;15.63;;;10.02;;
21894;SDS011;11112;51.270;7.224;2023-05-10T11:58:00;16.13;;;9.70;;
21894;SDS011;11112;51.270;7.224;2023-05-10T12:00:28;16.42;;;9.68;;
21894;SDS011;11112;51.270;7.224;2023-05-10T12:02:58;14.95;;;9.60;;
21894;SDS011;11112;51.270;7.224;2023-05-10T12:05:26;15.93;;;9.45;;
21894;SDS011;11112;51.270;7.224;2023-05-10T12:08:10;14.10;;;9.00;;
21894;SDS011;11112;51.270;7.224;2023-05-10T12:10:38;12.60;;;8.02;;
21894;SDS011;11112;51.270;7.224;2023-05-10T12:13:06;10.90;;;8.35;;
21894;SDS011;11112;51.270;7.224;2023-05-10T12:18:09;13.55;;;9.77;;
21894;SDS011;11112;51.270;7.224;2023-05-10T12:20:36;14.23;;;10.70;;
21894;SDS011;11112;51.270;7.224;2023-05-10T12:23:04;15.85;;;11.05;;
21894;SDS011;11112;51.270;7.224;2023-05-10T12:25:34;17.00;;;12.05;;
21894;SDS011;11112;51.270;7.224;2023-05-10T12:28:03;16.08;;;11.38;;
21894;SDS011;11112;51.270;7.224;2023-05-10T12:30:32;16.23;;;11.55;;
21894;SDS011;11112;51.270;7.224;2023-05-10T12:33:02;19.38;;;12.30;;
21894;SDS011;11112;51.270;7.224;2023-05-10T12:35:43;17.20;;;11.93;;
21894;SDS011;11112;51.270;7.224;2023-05-10T12:38:24;20.02;;;12.77;;
21894;SDS011;11112;51.270;7.224;2023-05-10T12:40:54;19.48;;;13.00;;
21894;SDS011;11112;51.270;7.224;2023-05-10T12:43:22;20.52;;;13.73;;
21894;SDS011;11112;51.270;7.224;2023-05-10T12:45:49;19.23;;;13.40;;
21894;SDS011;11112;51.270;7.224;2023-05-10T12:48:18;19.88;;;13.73;;
21894;SDS011;11112;51.270;7.224;2023-05-10T12:50:45;22.27;;;13.32;;
21894;SDS011;11112;51.270;7.224;2023-05-10T12:53:13;19.50;;;13.05;;
21894;SDS011;11112;51.270;7.224;2023-05-10T12:55:41;20.25;;;14.48;;
21894;SDS011;11112;51.270;7.224;2023-05-10T12:58:08;18.70;;;13.50;;
21894;SDS011;11112;51.270;7.224;2023-05-10T13:00:36;18.20;;;14.13;;
21894;SDS011;11112;51.270;7.224;2023-05-10T13:03:04;20.45;;;14.63;;
21894;SDS011;11112;51.270;7.224;2023-05-10T13:05:33;20.92;;;14.15;;
21894;SDS011;11112;51.270;7.224;2023-05-10T13:08:00;20.88;;;13.48;;
21894;SDS011;11112;51.270;7.224;2023-05-10T13:10:28;19.67;;;14.80;;
21894;SDS011;11112;51.270;7.224;2023-05-10T13:12:56;19.30;;;13.43;;
21894;SDS011;11112;51.270;7.224;2023-05-10T13:15:24;19.27;;;13.18;;
21894;SDS011;11112;51.270;7.224;2023-05-10T13:17:52;15.57;;;11.93;;
21894;SDS011;11112;51.270;7.224;2023-05-10T13:20:20;16.80;;;12.18;;
21894;SDS011;11112;51.270;7.224;2023-05-10T13:22:49;16.42;;;12.25;;
21894;SDS011;11112;51.270;7.224;2023-05-10T13:25:16;17.92;;;12.75;;
21894;SDS011;11112;51.270;7.224;2023-05-10T13:27:43;18.60;;;12.77;;
21894;SDS011;11112;51.270;7.224;2023-05-10T13:30:10;16.42;;;12.35;;
21894;SDS011;11112;51.270;7.224;2023-05-10T13:32:38;16.27;;;11.65;;
21894;SDS011;11112;51.270;7.224;2023-05-10T13:35:05;18.33;;;12.10;;
21894;SDS011;11112;51.270;7.224;2023-05-10T13:37:34;16.77;;;11.43;;
21894;SDS011;11112;51.270;7.224;2023-05-10T13:40:04;15.15;;;11.65;;
21894;SDS011;11112;51.270;7.224;2023-05-10T13:42:32;18.92;;;12.00;;
21894;SDS011;11112;51.270;7.224;2023-05-10T13:44:59;17.73;;;12.27;;
21894;SDS011;11112;51.270;7.224;2023-05-10T13:47:27;17.55;;;12.20;;
21894;SDS011;11112;51.270;7.224;2023-05-10T13:49:54;17.58;;;12.95;;
21894;SDS011;11112;51.270;7.224;2023-05-10T13:52:22;17.15;;;12.07;;
21894;SDS011;11112;51.270;7.224;2023-05-10T13:54:49;16.95;;;11.65;;
21894;SDS011;11112;51.270;7.224;2023-05-10T13:57:21;16.52;;;11.88;;
21894;SDS011;11112;51.270;7.224;2023-05-10T13:59:49;15.70;;;11.57;;
21894;SDS011;11112;51.270;7.224;2023-05-10T14:02:17;15.02;;;11.85;;
21894;SDS011;11112;51.270;7.224;2023-05-10T14:04:44;18.60;;;13.00;;
21894;SDS011;11112;51.270;7.224;2023-05-10T14:07:11;19.48;;;13.90;;
21894;SDS011;11112;51.270;7.224;2023-05-10T14:09:38;19.63;;;13.88;;
21894;SDS011;11112;51.270;7.224;2023-05-10T14:12:06;19.80;;;13.95;;
21894;SDS011;11112;51.270;7.224;2023-05-10T14:14:34;21.30;;;14.68;;
21894;SDS011;11112;51.270;7.224;2023-05-10T14:17:01;20.08;;;15.00;;
21894;SDS011;11112;51.270;7.224;2023-05-10T14:19:28;19.33;;;14.25;;
21894;SDS011;11112;51.270;7.224;2023-05-10T14:21:57;20.20;;;14.55;;
21894;SDS011;11112;51.270;7.224;2023-05-10T14:24:24;19.33;;;14.30;;
21894;SDS011;11112;51.270;7.224;2023-05-10T14:26:51;21.25;;;15.45;;
21894;SDS011;11112;51.270;7.224;2023-05-10T14:29:19;19.23;;;14.77;;
21894;SDS011;11112;51.270;7.224;2023-05-10T14:31:47;20.27;;;14.18;;
21894;SDS011;11112;51.270;7.224;2023-05-10T14:34:14;21.40;;;14.43;;
21894;SDS011;11112;51.270;7.224;2023-05-10T14:36:41;21.88;;;15.55;;
21894;SDS011;11112;51.270;7.224;2023-05-10T14:39:09;17.60;;;13.65;;
21894;SDS011;11112;51.270;7.224;2023-05-10T14:41:37;16.52;;;12.90;;
21894;SDS011;11112;51.270;7.224;2023-05-10T14:44:06;17.05;;;12.80;;
21894;SDS011;11112;51.270;7.224;2023-05-10T14:46:35;17.17;;;12.45;;
21894;SDS011;11112;51.270;7.224;2023-05-10T14:49:03;19.55;;;13.18;;
21894;SDS011;11112;51.270;7.224;2023-05-10T14:51:30;19.55;;;14.68;;
21894;SDS011;11112;51.270;7.224;2023-05-10T14:53:57;20.08;;;15.00;;
21894;SDS011;11112;51.270;7.224;2023-05-10T14:56:25;16.00;;;12.63;;
21894;SDS011;11112;51.270;7.224;2023-05-10T14:58:53;17.80;;;12.60;;